createdAt,value
2024-01-22T00:00:24.276Z,18.92
2024-01-22T00:02:50.710Z,18.91
2024-01-22T00:05:17.113Z,18.91
2024-01-22T00:07:43.578Z,18.89
2024-01-22T00:10:10.166Z,18.88
2024-01-22T00:12:38.191Z,18.81
2024-01-22T00:15:04.958Z,18.76
2024-01-22T00:17:31.380Z,18.71
2024-01-22T00:19:57.793Z,18.69
2024-01-22T00:22:24.201Z,18.72
2024-01-22T00:24:50.735Z,18.74
2024-01-22T00:27:17.214Z,18.76
2024-01-22T00:29:43.790Z,18.72
2024-01-22T00:32:10.188Z,18.73
2024-01-22T00:34:36.599Z,18.76
2024-01-22T00:37:03.062Z,18.74
2024-01-22T00:39:29.513Z,18.76
2024-01-22T00:41:57.706Z,18.77
2024-01-22T00:44:24.186Z,18.75
2024-01-22T00:46:50.663Z,18.74
2024-01-22T00:49:17.124Z,18.74
2024-01-22T00:51:43.598Z,18.76
2024-01-22T00:54:10.278Z,18.79
2024-01-22T00:56:36.856Z,18.79
2024-01-22T00:59:03.284Z,18.78
2024-01-22T01:01:31.587Z,18.80
2024-01-22T01:03:58.124Z,18.83
2024-01-22T01:06:24.651Z,18.82
2024-01-22T01:08:51.062Z,18.82
2024-01-22T01:11:17.510Z,18.82
2024-01-22T01:13:44.277Z,18.81
2024-01-22T01:16:11.057Z,18.76
2024-01-22T01:18:37.553Z,18.72
2024-01-22T01:21:04.037Z,18.72
2024-01-22T01:23:30.515Z,18.74
2024-01-22T01:25:56.921Z,18.75
2024-01-22T01:28:24.215Z,18.76
2024-01-22T01:30:50.620Z,18.75
2024-01-22T01:33:17.145Z,18.74
2024-01-22T01:35:46.118Z,18.76
2024-01-22T01:38:12.908Z,18.77
2024-01-22T01:40:42.525Z,18.82
2024-01-22T01:43:09.332Z,18.82
2024-01-22T01:45:35.746Z,18.78
2024-01-22T01:48:02.597Z,18.79
2024-01-22T01:50:29.479Z,18.80
2024-01-22T01:52:56.062Z,18.80
2024-01-22T01:55:23.222Z,18.84
2024-01-22T01:57:53.351Z,18.82
2024-01-22T02:00:24.086Z,18.81
2024-01-22T02:02:50.651Z,18.83
2024-01-22T02:05:18.189Z,18.83
2024-01-22T02:07:44.974Z,18.81
2024-01-22T02:10:14.715Z,18.81
2024-01-22T02:12:41.338Z,18.80
2024-01-22T02:15:07.996Z,18.79
2024-01-22T02:17:34.559Z,18.78
2024-01-22T02:20:01.098Z,18.79
2024-01-22T02:22:27.505Z,18.79
2024-01-22T02:24:54.081Z,18.80
2024-01-22T02:27:21.951Z,18.81
2024-01-22T02:29:48.551Z,18.79
2024-01-22T02:32:15.062Z,18.75
2024-01-22T02:34:41.461Z,18.78
2024-01-22T02:37:07.921Z,18.79
2024-01-22T02:39:34.553Z,18.78
2024-01-22T02:42:01.105Z,18.79
2024-01-22T02:44:27.551Z,18.76
2024-01-22T02:46:53.982Z,18.78
2024-01-22T02:49:20.760Z,18.76
2024-01-22T02:51:47.392Z,18.77
2024-01-22T02:54:14.217Z,18.80
2024-01-22T02:56:41.120Z,18.80
2024-01-22T02:59:08.099Z,18.74
2024-01-22T03:01:34.497Z,18.75
2024-01-22T03:04:00.981Z,18.73
2024-01-22T03:06:27.808Z,18.73
2024-01-22T03:08:54.475Z,18.74
2024-01-22T03:11:20.956Z,18.73
2024-01-22T03:13:47.669Z,18.75
2024-01-22T03:16:14.109Z,18.74
2024-01-22T03:18:40.647Z,18.74
2024-01-22T03:21:07.296Z,18.75
2024-01-22T03:23:33.922Z,18.78
2024-01-22T03:26:00.428Z,18.80
2024-01-22T03:28:27.123Z,18.81
2024-01-22T03:30:53.830Z,18.82
2024-01-22T03:33:20.511Z,18.80
2024-01-22T03:35:47.093Z,18.81
2024-01-22T03:38:14.122Z,18.83
2024-01-22T03:40:40.558Z,18.86
2024-01-22T03:43:06.959Z,18.86
2024-01-22T03:45:33.335Z,18.86
2024-01-22T03:47:59.887Z,18.82
2024-01-22T03:50:26.456Z,18.76
2024-01-22T03:52:52.872Z,18.78
2024-01-22T03:55:19.326Z,18.80
2024-01-22T03:57:46.014Z,18.80
2024-01-22T04:00:13.384Z,18.81
2024-01-22T04:02:40.022Z,18.84
2024-01-22T04:05:07.849Z,18.84
2024-01-22T04:07:34.568Z,18.84
2024-01-22T04:10:00.957Z,18.86
2024-01-22T04:12:27.375Z,18.88
2024-01-22T04:14:53.860Z,18.89
2024-01-22T04:17:20.387Z,18.89
2024-01-22T04:19:47.000Z,18.91
2024-01-22T04:22:13.465Z,18.92
2024-01-22T04:24:41.011Z,18.92
2024-01-22T04:27:07.602Z,18.94
2024-01-22T04:29:35.566Z,18.92
2024-01-22T04:32:02.461Z,18.93
2024-01-22T04:34:29.190Z,18.94
2024-01-22T04:36:56.044Z,18.96
2024-01-22T04:39:22.583Z,18.95
2024-01-22T04:41:49.185Z,18.96
2024-01-22T04:44:15.658Z,18.97
2024-01-22T04:46:42.090Z,18.95
2024-01-22T04:49:10.054Z,18.92
2024-01-22T04:51:36.618Z,18.89
2024-01-22T04:54:03.241Z,18.91
2024-01-22T04:56:29.824Z,18.96
2024-01-22T04:58:56.233Z,18.97
2024-01-22T05:01:22.860Z,18.95
2024-01-22T05:03:49.706Z,18.95
2024-01-22T05:06:16.633Z,18.94
2024-01-22T05:08:43.684Z,18.92
2024-01-22T05:11:10.447Z,18.94
2024-01-22T05:13:36.908Z,18.97
2024-01-22T05:16:03.367Z,18.99
2024-01-22T05:18:29.914Z,18.97
2024-01-22T05:20:56.374Z,18.97
2024-01-22T05:23:23.121Z,18.94
2024-01-22T05:25:49.542Z,18.91
2024-01-22T05:28:15.926Z,18.93
2024-01-22T05:30:42.335Z,18.94
2024-01-22T05:33:08.859Z,18.92
2024-01-22T05:35:35.407Z,18.95
2024-01-22T05:38:01.867Z,18.94
2024-01-22T05:40:28.298Z,18.87
2024-01-22T05:42:54.681Z,18.81
2024-01-22T05:45:21.184Z,18.84
2024-01-22T05:47:47.719Z,18.86
2024-01-22T05:50:14.484Z,18.85
2024-01-22T05:52:40.874Z,18.83
2024-01-22T05:55:07.520Z,18.85
2024-01-22T05:57:33.909Z,18.84
2024-01-22T06:00:00.441Z,18.86
2024-01-22T06:02:29.313Z,18.91
2024-01-22T06:04:57.186Z,18.92
2024-01-22T06:07:23.751Z,18.92
2024-01-22T06:09:55.509Z,18.93
2024-01-22T06:12:28.702Z,18.95
2024-01-22T06:14:55.279Z,18.94
2024-01-22T06:17:21.890Z,18.89
2024-01-22T06:19:49.028Z,18.87
2024-01-22T06:22:15.579Z,18.89
2024-01-22T06:24:42.393Z,18.92
2024-01-22T06:27:09.202Z,18.92
2024-01-22T06:29:36.573Z,18.90
2024-01-22T06:32:03.301Z,18.94
2024-01-22T06:34:29.789Z,18.94
2024-01-22T06:36:56.296Z,18.95
2024-01-22T06:39:22.732Z,18.91
2024-01-22T06:41:49.175Z,18.92
2024-01-22T06:44:16.646Z,18.95
2024-01-22T06:46:43.129Z,18.95
2024-01-22T06:49:11.287Z,18.96
2024-01-22T06:51:45.324Z,18.97
2024-01-22T06:54:13.440Z,19.00
2024-01-22T06:56:39.957Z,19.00
2024-01-22T06:59:06.378Z,19.01
2024-01-22T07:01:32.800Z,18.98
2024-01-22T07:03:59.331Z,18.94
2024-01-22T07:06:26.995Z,18.95
2024-01-22T07:08:53.528Z,18.95
2024-01-22T07:11:20.209Z,18.94
2024-01-22T07:13:46.691Z,18.92
2024-01-22T07:16:13.153Z,18.95
2024-01-22T07:18:39.774Z,18.97
2024-01-22T07:21:08.129Z,18.99
2024-01-22T07:23:34.601Z,19.00
2024-01-22T07:26:00.962Z,19.00
2024-01-22T07:28:28.225Z,19.01
2024-01-22T07:30:54.895Z,19.00
2024-01-22T07:33:21.627Z,18.96
2024-01-22T07:35:48.165Z,18.92
2024-01-22T07:38:14.582Z,18.96
2024-01-22T07:40:40.962Z,18.96
2024-01-22T07:43:07.990Z,18.96
2024-01-22T07:45:34.832Z,18.97
2024-01-22T07:48:01.616Z,19.00
2024-01-22T07:50:28.060Z,18.98
2024-01-22T07:52:54.780Z,19.00
2024-01-22T07:55:21.270Z,18.98
2024-01-22T07:57:47.699Z,18.96
2024-01-22T08:00:14.708Z,18.93
2024-01-22T08:02:41.365Z,18.90
2024-01-22T08:05:08.312Z,18.89
2024-01-22T08:07:35.120Z,18.88
2024-01-22T08:10:01.890Z,18.87
2024-01-22T08:12:28.313Z,18.89
2024-01-22T08:14:54.942Z,18.91
2024-01-22T08:17:21.428Z,18.90
2024-01-22T08:19:47.883Z,18.92
2024-01-22T08:22:14.348Z,18.94
2024-01-22T08:24:40.863Z,18.97
2024-01-22T08:27:07.407Z,18.96
2024-01-22T08:29:33.825Z,18.98
2024-01-22T08:32:00.312Z,19.02
2024-01-22T08:34:27.144Z,19.05
2024-01-22T08:36:53.740Z,19.06
2024-01-22T08:39:20.295Z,19.08
2024-01-22T08:41:46.797Z,19.10
2024-01-22T08:44:13.252Z,19.25
2024-01-22T08:46:39.622Z,19.35
2024-01-22T08:49:06.647Z,19.28
2024-01-22T08:51:33.288Z,19.02
2024-01-22T08:53:59.731Z,18.88
2024-01-22T08:56:26.553Z,18.77
2024-01-22T08:58:53.508Z,18.79
2024-01-22T09:01:20.195Z,18.92
2024-01-22T09:03:46.799Z,19.02
2024-01-22T09:06:13.773Z,19.06
2024-01-22T09:08:41.263Z,19.08
2024-01-22T09:11:07.660Z,19.10
2024-01-22T09:13:34.093Z,19.11
2024-01-22T09:16:00.575Z,19.12
2024-01-22T09:18:27.140Z,19.15
2024-01-22T09:20:53.971Z,19.15
2024-01-22T09:23:20.413Z,19.19
2024-01-22T09:25:47.034Z,19.19
2024-01-22T09:28:15.410Z,19.22
2024-01-22T09:30:42.476Z,19.23
2024-01-22T09:33:10.976Z,19.25
2024-01-22T09:35:42.119Z,19.26
2024-01-22T09:38:08.833Z,19.30
2024-01-22T09:40:35.457Z,19.30
2024-01-22T09:43:05.256Z,19.32
2024-01-22T09:45:32.444Z,19.35
2024-01-22T09:48:01.880Z,19.37
2024-01-22T09:50:28.855Z,19.37
2024-01-22T09:53:00.430Z,19.40
2024-01-22T09:55:26.965Z,19.41
2024-01-22T09:57:54.010Z,19.41
2024-01-22T10:00:26.932Z,19.41
2024-01-22T10:02:53.773Z,19.42
2024-01-22T10:05:20.675Z,19.43
2024-01-22T10:07:48.565Z,19.44
2024-01-22T10:10:16.697Z,19.47
2024-01-22T10:13:09.864Z,19.49
2024-01-22T10:15:36.598Z,19.51
2024-01-22T10:18:14.225Z,19.51
2024-01-22T10:20:42.096Z,19.54
2024-01-22T10:23:09.888Z,19.54
2024-01-22T10:25:37.108Z,19.51
2024-01-22T10:28:12.861Z,19.55
2024-01-22T10:30:40.136Z,19.55
2024-01-22T10:33:11.483Z,19.56
2024-01-22T10:35:38.243Z,19.57
2024-01-22T10:38:11.973Z,19.59
2024-01-22T10:40:39.027Z,19.57
2024-01-22T10:43:17.894Z,19.60
2024-01-22T10:45:46.301Z,19.60
2024-01-22T10:48:20.452Z,19.62
2024-01-22T10:50:54.408Z,19.62
2024-01-22T10:53:21.665Z,19.63
2024-01-22T10:55:54.030Z,19.63
2024-01-22T10:58:23.463Z,19.63
2024-01-22T11:00:51.596Z,19.65
2024-01-22T11:03:19.329Z,19.65
2024-01-22T11:05:49.974Z,19.65
2024-01-22T11:08:17.130Z,19.65
2024-01-22T11:10:44.347Z,19.68
2024-01-22T11:13:11.706Z,19.68
2024-01-22T11:15:38.223Z,19.68
2024-01-22T11:18:05.537Z,19.68
2024-01-22T11:20:33.595Z,19.68
2024-01-22T11:23:03.184Z,19.69
2024-01-22T11:25:30.013Z,19.69
2024-01-22T11:28:03.941Z,19.69
2024-01-22T11:30:34.052Z,19.70
2024-01-22T11:33:01.541Z,19.71
2024-01-22T11:35:38.259Z,19.70
2024-01-22T11:38:06.115Z,19.72
2024-01-22T11:40:53.848Z,19.71
2024-01-22T11:43:21.085Z,19.71
2024-01-22T11:45:48.432Z,19.71
2024-01-22T11:48:16.506Z,19.73
2024-01-22T11:50:44.618Z,19.74
2024-01-22T11:53:11.712Z,19.75
2024-01-22T11:55:40.435Z,19.76
2024-01-22T11:58:11.113Z,19.76
2024-01-22T12:00:37.629Z,19.76
2024-01-22T12:03:04.156Z,19.77
2024-01-22T12:05:30.568Z,19.77
2024-01-22T12:07:58.589Z,19.77
2024-01-22T12:10:26.816Z,19.78
2024-01-22T12:12:56.475Z,19.84
2024-01-22T12:15:25.245Z,19.88
2024-01-22T12:17:52.041Z,19.94
2024-01-22T12:20:19.506Z,19.98
2024-01-22T12:22:46.193Z,19.96
2024-01-22T12:25:15.894Z,19.93
2024-01-22T12:27:42.431Z,19.96
2024-01-22T12:30:09.925Z,19.95
2024-01-22T12:32:37.348Z,19.94
2024-01-22T12:35:05.062Z,19.94
2024-01-22T12:37:32.393Z,19.92
2024-01-22T12:40:05.735Z,19.93
2024-01-22T12:42:32.397Z,19.93
2024-01-22T12:45:00.098Z,19.93
2024-01-22T12:47:28.175Z,19.93
2024-01-22T12:49:55.758Z,19.93
2024-01-22T12:52:22.868Z,19.93
2024-01-22T12:54:50.156Z,19.93
2024-01-22T12:57:16.931Z,19.93
2024-01-22T12:59:47.539Z,19.94
2024-01-22T13:02:15.500Z,19.95
2024-01-22T13:04:43.107Z,19.95
2024-01-22T13:07:10.243Z,19.96
2024-01-22T13:09:37.036Z,19.95
2024-01-22T13:12:04.157Z,19.95
2024-01-22T13:14:32.369Z,19.96
2024-01-22T13:17:05.853Z,19.96
2024-01-22T13:19:35.262Z,19.96
2024-01-22T13:22:03.853Z,19.96
2024-01-22T13:24:33.718Z,19.97
2024-01-22T13:27:01.425Z,19.97
2024-01-22T13:29:29.193Z,19.97
2024-01-22T13:31:56.943Z,19.98
2024-01-22T13:34:25.376Z,19.98
2024-01-22T13:36:52.277Z,19.98
2024-01-22T13:39:18.931Z,19.98
2024-01-22T13:41:45.483Z,19.99
2024-01-22T13:44:15.555Z,19.98
2024-01-22T13:46:42.312Z,19.98
2024-01-22T13:49:10.425Z,19.99
2024-01-22T13:51:37.947Z,19.99
2024-01-22T13:54:05.329Z,19.99
2024-01-22T13:56:35.615Z,19.98
2024-01-22T13:59:02.595Z,19.98
2024-01-22T14:01:29.086Z,19.97
2024-01-22T14:03:55.799Z,19.98
2024-01-22T14:06:22.325Z,19.97
2024-01-22T14:08:49.256Z,19.99
2024-01-22T14:11:17.594Z,19.99
2024-01-22T14:13:44.919Z,20.00
2024-01-22T14:16:12.416Z,19.99
2024-01-22T14:18:39.435Z,20.00
2024-01-22T14:21:07.526Z,20.00
2024-01-22T14:23:35.226Z,20.00
2024-01-22T14:26:02.210Z,19.99
2024-01-22T14:28:29.254Z,19.98
2024-01-22T14:30:56.177Z,19.99
2024-01-22T14:33:23.873Z,19.99
2024-01-22T14:35:51.797Z,20.00
2024-01-22T14:38:25.745Z,19.99
2024-01-22T14:40:58.357Z,20.00
2024-01-22T14:43:25.848Z,20.00
2024-01-22T14:45:52.468Z,20.00
2024-01-22T14:48:21.157Z,20.00
2024-01-22T14:50:47.894Z,19.99
2024-01-22T14:53:14.364Z,19.98
2024-01-22T14:55:40.792Z,19.99
2024-01-22T14:58:07.526Z,19.98
2024-01-22T15:00:36.891Z,19.99
2024-01-22T15:03:04.299Z,19.99
2024-01-22T15:05:31.877Z,19.99
2024-01-22T15:07:59.383Z,20.00
2024-01-22T15:10:25.933Z,20.00
2024-01-22T15:12:52.370Z,20.01
2024-01-22T15:15:18.927Z,19.99
2024-01-22T15:17:45.461Z,19.99
2024-01-22T15:20:13.188Z,19.98
2024-01-22T15:22:39.765Z,19.98
2024-01-22T15:25:07.016Z,19.98
2024-01-22T15:27:33.960Z,19.98
2024-01-22T15:30:01.039Z,19.96
2024-01-22T15:32:29.227Z,19.99
2024-01-22T15:34:56.717Z,20.00
2024-01-22T15:37:23.457Z,19.98
2024-01-22T15:39:50.967Z,19.99
2024-01-22T15:42:17.744Z,20.02
2024-01-22T15:44:44.545Z,20.10
2024-01-22T15:47:11.558Z,20.14
2024-01-22T15:49:38.640Z,20.12
2024-01-22T15:52:05.339Z,20.09
2024-01-22T15:54:32.334Z,20.09
2024-01-22T15:56:58.970Z,20.10
2024-01-22T15:59:26.929Z,20.09
2024-01-22T16:01:53.450Z,20.07
2024-01-22T16:04:20.023Z,20.08
2024-01-22T16:06:53.856Z,20.06
2024-01-22T16:09:29.304Z,20.05
2024-01-22T16:11:56.221Z,20.05
2024-01-22T16:14:22.837Z,20.04
2024-01-22T16:16:49.393Z,20.04
2024-01-22T16:19:18.701Z,20.04
2024-01-22T16:21:54.063Z,20.02
2024-01-22T16:24:21.364Z,20.02
2024-01-22T16:26:48.393Z,20.00
2024-01-22T16:29:15.211Z,20.02
2024-01-22T16:31:42.190Z,20.00
2024-01-22T16:34:08.756Z,20.03
2024-01-22T16:36:41.528Z,20.02
2024-01-22T16:39:08.494Z,20.02
2024-01-22T16:41:35.200Z,20.02
2024-01-22T16:44:01.647Z,20.01
2024-01-22T16:46:28.389Z,20.01
2024-01-22T16:48:57.537Z,20.00
2024-01-22T16:51:24.512Z,19.99
2024-01-22T16:53:51.427Z,19.99
2024-01-22T16:56:17.966Z,19.99
2024-01-22T16:58:44.416Z,19.99
2024-01-22T17:01:10.876Z,20.01
2024-01-22T17:03:38.483Z,20.01
2024-01-22T17:06:05.096Z,19.99
2024-01-22T17:08:31.628Z,19.98
2024-01-22T17:10:59.379Z,19.98
2024-01-22T17:13:26.167Z,19.97
2024-01-22T17:15:52.701Z,19.98
2024-01-22T17:18:20.560Z,19.99
2024-01-22T17:20:47.534Z,19.99
2024-01-22T17:23:14.149Z,19.97
2024-01-22T17:25:40.760Z,19.98
2024-01-22T17:28:07.295Z,19.98
2024-01-22T17:30:34.182Z,19.98
2024-01-22T17:33:01.692Z,19.96
2024-01-22T17:35:29.174Z,19.97
2024-01-22T17:37:56.767Z,19.98
2024-01-22T17:40:23.347Z,19.97
2024-01-22T17:42:49.881Z,19.96
2024-01-22T17:45:17.383Z,19.96
2024-01-22T17:47:44.189Z,19.96
2024-01-22T17:50:10.726Z,19.95
2024-01-22T17:52:38.598Z,19.94
2024-01-22T17:55:05.398Z,19.94
2024-01-22T17:57:32.037Z,19.96
2024-01-22T17:59:59.237Z,19.96
2024-01-22T18:02:25.737Z,19.95
2024-01-22T18:04:52.463Z,19.90
2024-01-22T18:07:19.033Z,19.91
2024-01-22T18:09:45.607Z,19.93
2024-01-22T18:12:12.014Z,19.90
2024-01-22T18:14:39.629Z,19.90
2024-01-22T18:17:06.447Z,19.92
2024-01-22T18:19:33.075Z,19.90
2024-01-22T18:21:59.594Z,19.93
2024-01-22T18:24:26.142Z,19.92
2024-01-22T18:26:53.095Z,19.90
2024-01-22T18:29:19.546Z,19.90
2024-01-22T18:31:45.971Z,19.90
2024-01-22T18:34:12.881Z,19.91
2024-01-22T18:36:39.663Z,19.91
2024-01-22T18:39:06.638Z,19.90
2024-01-22T18:41:35.907Z,19.92
2024-01-22T18:44:07.775Z,19.90
2024-01-22T18:46:34.131Z,19.89
2024-01-22T18:49:00.667Z,19.89
2024-01-22T18:51:27.145Z,19.89
2024-01-22T18:53:53.928Z,19.88
2024-01-22T18:56:20.703Z,19.89
2024-01-22T18:58:47.111Z,19.89
2024-01-22T19:01:13.656Z,19.90
2024-01-22T19:03:40.155Z,19.90
2024-01-22T19:06:07.062Z,19.89
2024-01-22T19:08:33.694Z,19.89
2024-01-22T19:11:00.087Z,19.89
2024-01-22T19:13:26.516Z,19.88
2024-01-22T19:15:52.989Z,19.88
2024-01-22T19:18:19.520Z,19.85
2024-01-22T19:20:47.417Z,19.85
2024-01-22T19:23:16.914Z,19.87
2024-01-22T19:25:44.313Z,19.85
2024-01-22T19:28:10.810Z,19.86
2024-01-22T19:30:37.220Z,19.88
2024-01-22T19:33:05.871Z,19.86
2024-01-22T19:35:32.378Z,19.84
2024-01-22T19:37:58.768Z,19.85
2024-01-22T19:40:25.243Z,19.86
2024-01-22T19:42:51.658Z,19.86
2024-01-22T19:45:18.054Z,19.84
2024-01-22T19:47:44.729Z,19.85
2024-01-22T19:50:11.338Z,19.84
2024-01-22T19:52:37.837Z,19.85
2024-01-22T19:55:04.368Z,19.84
2024-01-22T19:57:30.917Z,19.86
2024-01-22T19:59:57.611Z,19.86
2024-01-22T20:02:24.169Z,19.85
2024-01-22T20:04:51.966Z,19.87
2024-01-22T20:07:18.505Z,19.86
2024-01-22T20:09:47.049Z,19.85
2024-01-22T20:12:14.297Z,19.84
2024-01-22T20:14:40.833Z,19.84
2024-01-22T20:17:07.193Z,19.86
2024-01-22T20:19:33.949Z,19.85
2024-01-22T20:22:01.830Z,19.86
2024-01-22T20:24:28.502Z,19.85
2024-01-22T20:26:56.507Z,19.86
2024-01-22T20:29:26.192Z,19.85
2024-01-22T20:31:53.655Z,19.84
2024-01-22T20:34:20.204Z,19.82
2024-01-22T20:36:46.795Z,19.83
2024-01-22T20:39:15.289Z,19.83
2024-01-22T20:41:42.947Z,19.81
2024-01-22T20:44:09.944Z,19.84
2024-01-22T20:46:36.747Z,19.83
2024-01-22T20:49:03.271Z,19.82
2024-01-22T20:51:30.484Z,19.81
2024-01-22T20:53:57.485Z,19.80
2024-01-22T20:56:24.075Z,19.83
2024-01-22T20:58:50.790Z,19.83
2024-01-22T21:01:17.823Z,19.85
2024-01-22T21:03:45.037Z,19.83
2024-01-22T21:06:12.452Z,19.81
2024-01-22T21:08:39.307Z,19.83
2024-01-22T21:11:06.200Z,19.82
2024-01-22T21:13:33.296Z,19.83
2024-01-22T21:16:02.515Z,19.83
2024-01-22T21:18:30.024Z,19.81
2024-01-22T21:20:56.759Z,19.81
2024-01-22T21:23:23.389Z,19.83
2024-01-22T21:25:50.166Z,19.83
2024-01-22T21:28:17.435Z,19.84
2024-01-22T21:30:43.956Z,19.81
2024-01-22T21:33:10.714Z,19.82
2024-01-22T21:35:37.270Z,19.81
2024-01-22T21:38:03.791Z,19.81
2024-01-22T21:40:30.207Z,19.81
2024-01-22T21:42:56.682Z,19.81
2024-01-22T21:45:23.179Z,19.81
2024-01-22T21:47:49.758Z,19.81
2024-01-22T21:50:16.238Z,19.81
2024-01-22T21:52:42.610Z,19.81
2024-01-22T21:55:12.429Z,19.80
2024-01-22T21:57:39.640Z,19.81
2024-01-22T22:00:06.935Z,19.81
2024-01-22T22:02:34.279Z,19.82
2024-01-22T22:05:01.573Z,19.83
2024-01-22T22:07:28.873Z,19.84
2024-01-22T22:09:55.618Z,19.84
2024-01-22T22:12:22.606Z,19.86
2024-01-22T22:14:49.883Z,19.85
2024-01-22T22:17:29.803Z,19.87
2024-01-22T22:19:56.395Z,19.87
2024-01-22T22:22:23.084Z,19.87
2024-01-22T22:25:04.109Z,19.87
2024-01-22T22:27:30.686Z,19.89
2024-01-22T22:29:57.183Z,19.86
2024-01-22T22:32:23.726Z,19.85
2024-01-22T22:34:50.495Z,19.84
2024-01-22T22:37:19.067Z,19.83
2024-01-22T22:39:45.512Z,19.82
2024-01-22T22:42:12.013Z,19.81
2024-01-22T22:44:38.470Z,19.81
2024-01-22T22:47:04.992Z,19.80
2024-01-22T22:49:31.456Z,19.79
2024-01-22T22:51:58.736Z,19.80
2024-01-22T22:54:25.224Z,19.79
2024-01-22T22:56:51.774Z,19.79
2024-01-22T22:59:18.214Z,19.80
2024-01-22T23:01:45.442Z,19.80
2024-01-22T23:04:12.023Z,19.79
2024-01-22T23:06:38.894Z,19.79
2024-01-22T23:09:05.429Z,19.80
2024-01-22T23:11:32.331Z,19.80
2024-01-22T23:13:58.855Z,19.78
2024-01-22T23:16:25.403Z,19.68
2024-01-22T23:18:51.877Z,19.63
2024-01-22T23:21:18.428Z,19.63
2024-01-22T23:23:45.161Z,19.65
2024-01-22T23:26:11.564Z,19.68
2024-01-22T23:28:37.985Z,19.68
2024-01-22T23:31:04.546Z,19.65
2024-01-22T23:33:37.826Z,19.68
2024-01-22T23:36:04.567Z,19.67
2024-01-22T23:38:31.306Z,19.65
2024-01-22T23:40:57.921Z,19.64
2024-01-22T23:43:24.348Z,19.63
2024-01-22T23:45:50.702Z,19.63
2024-01-22T23:48:18.500Z,19.63
2024-01-22T23:50:45.970Z,19.61
2024-01-22T23:53:12.489Z,19.63
2024-01-22T23:55:38.906Z,19.65
2024-01-22T23:58:05.353Z,19.65
